sensor_id;sensor_type;location;lat;lon;timestamp;P1;durP1;ratioP1;P2;durP2;ratioP2
20729;SDS011;10526;50.850;12.928;2023-07-22T00:01:24;16.83;;;7.82;;
20729;SDS011;10526;50.850;12.928;2023-07-22T00:05:46;18.42;;;7.88;;
20729;SDS011;10526;50.850;12.928;2023-07-22T00:10:09;23.05;;;8.20;;
20729;SDS011;10526;50.850;12.928;2023-07-22T00:14:31;15.00;;;8.00;;
20729;SDS011;10526;50.850;12.928;2023-07-22T00:18:53;17.50;;;8.02;;
20729;SDS011;10526;50.850;12.928;2023-07-22T00:23:15;14.38;;;7.60;;
20729;SDS011;10526;50.850;12.928;2023-07-22T00:27:38;16.40;;;8.50;;
20729;SDS011;10526;50.850;12.928;2023-07-22T00:32:04;16.15;;;9.05;;
20729;SDS011;10526;50.850;12.928;2023-07-22T00:36:28;16.45;;;7.55;;
20729;SDS011;10526;50.850;12.928;2023-07-22T00:40:50;20.73;;;8.25;;
20729;SDS011;10526;50.850;12.928;2023-07-22T00:45:12;15.88;;;8.30;;
20729;SDS011;10526;50.850;12.928;2023-07-22T00:49:34;18.30;;;8.10;;
20729;SDS011;10526;50.850;12.928;2023-07-22T00:53:57;18.25;;;8.05;;
20729;SDS011;10526;50.850;12.928;2023-07-22T00:58:20;17.58;;;8.75;;
20729;SDS011;10526;50.850;12.928;2023-07-22T01:02:42;19.95;;;8.60;;
20729;SDS011;10526;50.850;12.928;2023-07-22T01:07:04;19.15;;;8.30;;
20729;SDS011;10526;50.850;12.928;2023-07-22T01:11:28;16.42;;;7.90;;
20729;SDS011;10526;50.850;12.928;2023-07-22T01:15:50;15.98;;;8.02;;
20729;SDS011;10526;50.850;12.928;2023-07-22T01:20:12;16.63;;;8.52;;
20729;SDS011;10526;50.850;12.928;2023-07-22T01:24:35;13.43;;;7.00;;
20729;SDS011;10526;50.850;12.928;2023-07-22T01:29:04;16.80;;;7.43;;
20729;SDS011;10526;50.850;12.928;2023-07-22T01:33:27;16.38;;;6.80;;
20729;SDS011;10526;50.850;12.928;2023-07-22T01:37:49;15.07;;;7.50;;
20729;SDS011;10526;50.850;12.928;2023-07-22T01:42:11;18.13;;;7.35;;
20729;SDS011;10526;50.850;12.928;2023-07-22T01:46:34;18.70;;;7.60;;
20729;SDS011;10526;50.850;12.928;2023-07-22T01:50:57;19.50;;;8.65;;
20729;SDS011;10526;50.850;12.928;2023-07-22T01:55:19;17.95;;;8.57;;
20729;SDS011;10526;50.850;12.928;2023-07-22T01:59:41;20.95;;;9.00;;
20729;SDS011;10526;50.850;12.928;2023-07-22T02:04:03;17.60;;;7.95;;
20729;SDS011;10526;50.850;12.928;2023-07-22T02:08:25;18.15;;;8.23;;
20729;SDS011;10526;50.850;12.928;2023-07-22T02:12:47;20.42;;;8.60;;
20729;SDS011;10526;50.850;12.928;2023-07-22T02:17:09;19.67;;;8.82;;
20729;SDS011;10526;50.850;12.928;2023-07-22T02:21:31;16.23;;;8.30;;
20729;SDS011;10526;50.850;12.928;2023-07-22T02:25:53;18.55;;;9.68;;
20729;SDS011;10526;50.850;12.928;2023-07-22T02:30:15;21.35;;;10.30;;
20729;SDS011;10526;50.850;12.928;2023-07-22T02:34:38;17.33;;;9.35;;
20729;SDS011;10526;50.850;12.928;2023-07-22T02:39:00;20.67;;;9.00;;
20729;SDS011;10526;50.850;12.928;2023-07-22T02:43:22;19.67;;;9.00;;
20729;SDS011;10526;50.850;12.928;2023-07-22T02:47:44;19.13;;;9.02;;
20729;SDS011;10526;50.850;12.928;2023-07-22T02:52:06;17.15;;;9.70;;
20729;SDS011;10526;50.850;12.928;2023-07-22T02:56:28;24.30;;;8.85;;
20729;SDS011;10526;50.850;12.928;2023-07-22T03:00:50;18.65;;;8.73;;
20729;SDS011;10526;50.850;12.928;2023-07-22T03:05:12;19.60;;;10.70;;
20729;SDS011;10526;50.850;12.928;2023-07-22T03:09:34;22.00;;;10.07;;
20729;SDS011;10526;50.850;12.928;2023-07-22T03:13:56;22.45;;;9.30;;
20729;SDS011;10526;50.850;12.928;2023-07-22T03:18:18;18.23;;;8.85;;
20729;SDS011;10526;50.850;12.928;2023-07-22T03:22:41;16.77;;;8.88;;
20729;SDS011;10526;50.850;12.928;2023-07-22T03:27:03;24.50;;;9.25;;
20729;SDS011;10526;50.850;12.928;2023-07-22T03:31:25;19.05;;;9.60;;
20729;SDS011;10526;50.850;12.928;2023-07-22T03:35:47;20.70;;;10.50;;
20729;SDS011;10526;50.850;12.928;2023-07-22T03:40:09;22.30;;;9.63;;
20729;SDS011;10526;50.850;12.928;2023-07-22T03:44:35;19.83;;;9.82;;
20729;SDS011;10526;50.850;12.928;2023-07-22T03:48:57;21.42;;;9.82;;
20729;SDS011;10526;50.850;12.928;2023-07-22T03:53:19;16.88;;;9.07;;
20729;SDS011;10526;50.850;12.928;2023-07-22T03:57:41;16.63;;;7.60;;
20729;SDS011;10526;50.850;12.928;2023-07-22T04:02:03;19.13;;;7.30;;
20729;SDS011;10526;50.850;12.928;2023-07-22T04:06:26;18.85;;;7.35;;
20729;SDS011;10526;50.850;12.928;2023-07-22T04:10:52;19.33;;;7.10;;
20729;SDS011;10526;50.850;12.928;2023-07-22T04:15:18;19.05;;;7.28;;
20729;SDS011;10526;50.850;12.928;2023-07-22T04:19:41;17.70;;;6.68;;
20729;SDS011;10526;50.850;12.928;2023-07-22T04:24:07;13.15;;;6.20;;
20729;SDS011;10526;50.850;12.928;2023-07-22T04:28:30;17.17;;;6.55;;
20729;SDS011;10526;50.850;12.928;2023-07-22T04:32:52;20.35;;;6.80;;
20729;SDS011;10526;50.850;12.928;2023-07-22T04:37:14;14.68;;;7.15;;
20729;SDS011;10526;50.850;12.928;2023-07-22T04:41:38;23.05;;;7.80;;
20729;SDS011;10526;50.850;12.928;2023-07-22T04:46:00;16.67;;;6.47;;
20729;SDS011;10526;50.850;12.928;2023-07-22T04:50:22;13.68;;;5.22;;
20729;SDS011;10526;50.850;12.928;2023-07-22T04:54:44;15.30;;;4.70;;
20729;SDS011;10526;50.850;12.928;2023-07-22T04:59:08;10.07;;;4.50;;
20729;SDS011;10526;50.850;12.928;2023-07-22T05:03:31;9.57;;;4.28;;
20729;SDS011;10526;50.850;12.928;2023-07-22T05:07:53;13.20;;;4.30;;
20729;SDS011;10526;50.850;12.928;2023-07-22T05:12:15;10.48;;;4.03;;
20729;SDS011;10526;50.850;12.928;2023-07-22T05:16:37;14.55;;;5.18;;
20729;SDS011;10526;50.850;12.928;2023-07-22T05:20:59;13.30;;;4.70;;
20729;SDS011;10526;50.850;12.928;2023-07-22T05:25:21;15.68;;;5.97;;
20729;SDS011;10526;50.850;12.928;2023-07-22T05:29:43;15.50;;;5.50;;
20729;SDS011;10526;50.850;12.928;2023-07-22T05:34:05;15.77;;;5.55;;
20729;SDS011;10526;50.850;12.928;2023-07-22T05:38:27;14.57;;;5.43;;
20729;SDS011;10526;50.850;12.928;2023-07-22T05:42:49;10.43;;;4.03;;
20729;SDS011;10526;50.850;12.928;2023-07-22T05:47:11;11.23;;;4.80;;
20729;SDS011;10526;50.850;12.928;2023-07-22T05:51:33;10.20;;;3.70;;
20729;SDS011;10526;50.850;12.928;2023-07-22T05:55:55;8.88;;;3.28;;
20729;SDS011;10526;50.850;12.928;2023-07-22T06:00:17;8.02;;;3.88;;
20729;SDS011;10526;50.850;12.928;2023-07-22T06:04:39;8.02;;;3.35;;
20729;SDS011;10526;50.850;12.928;2023-07-22T06:09:02;7.35;;;3.67;;
20729;SDS011;10526;50.850;12.928;2023-07-22T06:13:24;7.30;;;3.50;;
20729;SDS011;10526;50.850;12.928;2023-07-22T06:17:46;10.82;;;3.80;;
20729;SDS011;10526;50.850;12.928;2023-07-22T06:22:08;8.82;;;3.85;;
20729;SDS011;10526;50.850;12.928;2023-07-22T06:26:30;10.98;;;4.13;;
20729;SDS011;10526;50.850;12.928;2023-07-22T06:30:52;10.68;;;4.57;;
20729;SDS011;10526;50.850;12.928;2023-07-22T06:35:14;9.27;;;4.07;;
20729;SDS011;10526;50.850;12.928;2023-07-22T06:39:36;10.77;;;4.45;;
20729;SDS011;10526;50.850;12.928;2023-07-22T06:43:58;9.07;;;4.32;;
20729;SDS011;10526;50.850;12.928;2023-07-22T06:48:20;11.00;;;4.82;;
20729;SDS011;10526;50.850;12.928;2023-07-22T06:52:42;11.45;;;5.53;;
20729;SDS011;10526;50.850;12.928;2023-07-22T06:57:04;14.27;;;6.05;;
20729;SDS011;10526;50.850;12.928;2023-07-22T07:01:27;11.57;;;5.70;;
20729;SDS011;10526;50.850;12.928;2023-07-22T07:05:56;12.07;;;5.68;;
20729;SDS011;10526;50.850;12.928;2023-07-22T07:10:18;11.32;;;5.72;;
20729;SDS011;10526;50.850;12.928;2023-07-22T07:14:41;14.30;;;5.15;;
20729;SDS011;10526;50.850;12.928;2023-07-22T07:19:03;11.35;;;5.00;;
20729;SDS011;10526;50.850;12.928;2023-07-22T07:23:27;12.80;;;4.90;;
20729;SDS011;10526;50.850;12.928;2023-07-22T07:27:49;14.10;;;5.70;;
20729;SDS011;10526;50.850;12.928;2023-07-22T07:32:12;10.63;;;4.95;;
20729;SDS011;10526;50.850;12.928;2023-07-22T07:36:34;10.30;;;4.70;;
20729;SDS011;10526;50.850;12.928;2023-07-22T07:40:56;9.73;;;4.32;;
20729;SDS011;10526;50.850;12.928;2023-07-22T07:45:24;9.45;;;4.28;;
20729;SDS011;10526;50.850;12.928;2023-07-22T07:49:46;7.90;;;4.30;;
20729;SDS011;10526;50.850;12.928;2023-07-22T07:54:08;9.45;;;4.40;;
20729;SDS011;10526;50.850;12.928;2023-07-22T07:58:30;8.98;;;3.88;;
20729;SDS011;10526;50.850;12.928;2023-07-22T08:02:52;10.15;;;4.20;;
20729;SDS011;10526;50.850;12.928;2023-07-22T08:07:15;8.95;;;3.80;;
20729;SDS011;10526;50.850;12.928;2023-07-22T08:11:37;8.98;;;3.95;;
20729;SDS011;10526;50.850;12.928;2023-07-22T08:16:03;9.20;;;3.90;;
20729;SDS011;10526;50.850;12.928;2023-07-22T08:20:27;7.68;;;3.60;;
20729;SDS011;10526;50.850;12.928;2023-07-22T08:24:49;8.57;;;3.70;;
20729;SDS011;10526;50.850;12.928;2023-07-22T08:29:11;5.47;;;3.03;;
20729;SDS011;10526;50.850;12.928;2023-07-22T08:33:33;7.10;;;3.03;;
20729;SDS011;10526;50.850;12.928;2023-07-22T08:38:02;8.30;;;3.45;;
20729;SDS011;10526;50.850;12.928;2023-07-22T08:42:25;7.25;;;3.40;;
20729;SDS011;10526;50.850;12.928;2023-07-22T08:46:49;4.70;;;2.90;;
20729;SDS011;10526;50.850;12.928;2023-07-22T08:51:17;5.00;;;2.72;;
20729;SDS011;10526;50.850;12.928;2023-07-22T08:55:41;5.97;;;3.08;;
20729;SDS011;10526;50.850;12.928;2023-07-22T09:00:04;7.82;;;2.53;;
20729;SDS011;10526;50.850;12.928;2023-07-22T09:04:27;9.13;;;2.92;;
20729;SDS011;10526;50.850;12.928;2023-07-22T09:08:50;5.78;;;2.67;;
20729;SDS011;10526;50.850;12.928;2023-07-22T09:13:13;5.35;;;2.30;;
20729;SDS011;10526;50.850;12.928;2023-07-22T09:17:37;5.50;;;2.58;;
20729;SDS011;10526;50.850;12.928;2023-07-22T09:22:02;5.55;;;2.40;;
20729;SDS011;10526;50.850;12.928;2023-07-22T09:26:24;6.38;;;2.40;;
20729;SDS011;10526;50.850;12.928;2023-07-22T09:30:47;6.30;;;2.55;;
20729;SDS011;10526;50.850;12.928;2023-07-22T09:35:09;5.18;;;2.55;;
20729;SDS011;10526;50.850;12.928;2023-07-22T09:39:31;4.75;;;2.33;;
20729;SDS011;10526;50.850;12.928;2023-07-22T09:43:56;3.30;;;2.30;;
20729;SDS011;10526;50.850;12.928;2023-07-22T09:48:21;6.15;;;2.40;;
20729;SDS011;10526;50.850;12.928;2023-07-22T09:52:44;11.10;;;2.60;;
20729;SDS011;10526;50.850;12.928;2023-07-22T09:57:08;3.58;;;2.10;;
20729;SDS011;10526;50.850;12.928;2023-07-22T10:01:34;3.85;;;2.25;;
20729;SDS011;10526;50.850;12.928;2023-07-22T10:06:00;5.60;;;2.40;;
20729;SDS011;10526;50.850;12.928;2023-07-22T10:10:32;3.38;;;2.10;;
20729;SDS011;10526;50.850;12.928;2023-07-22T10:14:59;7.32;;;3.08;;
20729;SDS011;10526;50.850;12.928;2023-07-22T10:19:24;7.05;;;2.42;;
20729;SDS011;10526;50.850;12.928;2023-07-22T10:23:47;4.70;;;2.17;;
20729;SDS011;10526;50.850;12.928;2023-07-22T10:28:11;5.78;;;2.78;;
20729;SDS011;10526;50.850;12.928;2023-07-22T10:32:35;4.05;;;2.00;;
20729;SDS011;10526;50.850;12.928;2023-07-22T10:37:11;4.32;;;2.05;;
20729;SDS011;10526;50.850;12.928;2023-07-22T10:41:33;3.28;;;1.80;;
20729;SDS011;10526;50.850;12.928;2023-07-22T10:46:09;4.70;;;2.42;;
20729;SDS011;10526;50.850;12.928;2023-07-22T10:50:53;5.60;;;2.55;;
20729;SDS011;10526;50.850;12.928;2023-07-22T10:55:19;7.43;;;3.05;;
20729;SDS011;10526;50.850;12.928;2023-07-22T10:59:47;3.95;;;2.17;;
20729;SDS011;10526;50.850;12.928;2023-07-22T11:04:24;7.53;;;2.42;;
20729;SDS011;10526;50.850;12.928;2023-07-22T11:13:50;5.95;;;2.42;;
20729;SDS011;10526;50.850;12.928;2023-07-22T11:18:12;4.47;;;2.53;;
20729;SDS011;10526;50.850;12.928;2023-07-22T11:22:34;5.88;;;2.67;;
20729;SDS011;10526;50.850;12.928;2023-07-22T11:26:56;8.43;;;3.05;;
20729;SDS011;10526;50.850;12.928;2023-07-22T11:31:18;5.78;;;2.40;;
20729;SDS011;10526;50.850;12.928;2023-07-22T11:35:42;5.80;;;2.47;;
20729;SDS011;10526;50.850;12.928;2023-07-22T11:40:05;6.50;;;2.60;;
20729;SDS011;10526;50.850;12.928;2023-07-22T11:44:30;6.45;;;2.35;;
20729;SDS011;10526;50.850;12.928;2023-07-22T11:48:53;4.68;;;2.50;;
20729;SDS011;10526;50.850;12.928;2023-07-22T11:53:16;5.57;;;2.53;;
20729;SDS011;10526;50.850;12.928;2023-07-22T11:57:39;6.38;;;2.70;;
20729;SDS011;10526;50.850;12.928;2023-07-22T12:02:03;5.80;;;2.75;;
20729;SDS011;10526;50.850;12.928;2023-07-22T12:06:28;5.22;;;2.47;;
20729;SDS011;10526;50.850;12.928;2023-07-22T12:10:59;5.95;;;2.85;;
20729;SDS011;10526;50.850;12.928;2023-07-22T12:15:21;7.20;;;2.97;;
20729;SDS011;10526;50.850;12.928;2023-07-22T12:19:52;6.28;;;3.25;;
20729;SDS011;10526;50.850;12.928;2023-07-22T12:24:17;4.65;;;2.50;;
20729;SDS011;10526;50.850;12.928;2023-07-22T12:28:39;8.60;;;2.85;;
20729;SDS011;10526;50.850;12.928;2023-07-22T12:33:01;6.50;;;2.88;;
20729;SDS011;10526;50.850;12.928;2023-07-22T12:37:24;6.50;;;3.10;;
20729;SDS011;10526;50.850;12.928;2023-07-22T12:41:46;7.22;;;3.17;;
20729;SDS011;10526;50.850;12.928;2023-07-22T12:46:08;6.32;;;2.95;;
20729;SDS011;10526;50.850;12.928;2023-07-22T12:50:31;5.93;;;2.83;;
20729;SDS011;10526;50.850;12.928;2023-07-22T12:54:53;8.63;;;3.55;;
20729;SDS011;10526;50.850;12.928;2023-07-22T12:59:16;5.68;;;2.72;;
20729;SDS011;10526;50.850;12.928;2023-07-22T13:03:38;5.90;;;2.90;;
20729;SDS011;10526;50.850;12.928;2023-07-22T13:08:00;6.32;;;3.28;;
20729;SDS011;10526;50.850;12.928;2023-07-22T13:12:22;5.70;;;2.78;;
20729;SDS011;10526;50.850;12.928;2023-07-22T13:16:44;7.00;;;3.00;;
20729;SDS011;10526;50.850;12.928;2023-07-22T13:21:06;4.80;;;2.60;;
20729;SDS011;10526;50.850;12.928;2023-07-22T13:25:29;7.13;;;3.13;;
20729;SDS011;10526;50.850;12.928;2023-07-22T13:29:52;6.10;;;3.13;;
20729;SDS011;10526;50.850;12.928;2023-07-22T13:34:14;7.10;;;3.05;;
20729;SDS011;10526;50.850;12.928;2023-07-22T13:38:36;6.25;;;2.90;;
20729;SDS011;10526;50.850;12.928;2023-07-22T13:42:59;6.63;;;3.25;;
20729;SDS011;10526;50.850;12.928;2023-07-22T13:47:21;6.07;;;2.88;;
20729;SDS011;10526;50.850;12.928;2023-07-22T13:51:43;7.03;;;3.30;;
20729;SDS011;10526;50.850;12.928;2023-07-22T13:56:06;8.73;;;3.10;;
20729;SDS011;10526;50.850;12.928;2023-07-22T14:00:28;5.70;;;3.00;;
20729;SDS011;10526;50.850;12.928;2023-07-22T14:04:50;7.78;;;3.50;;
20729;SDS011;10526;50.850;12.928;2023-07-22T14:09:12;7.53;;;3.20;;
20729;SDS011;10526;50.850;12.928;2023-07-22T14:13:34;10.77;;;3.55;;
20729;SDS011;10526;50.850;12.928;2023-07-22T14:17:56;6.85;;;3.05;;
20729;SDS011;10526;50.850;12.928;2023-07-22T14:22:18;8.07;;;3.38;;
20729;SDS011;10526;50.850;12.928;2023-07-22T14:26:40;7.80;;;3.05;;
20729;SDS011;10526;50.850;12.928;2023-07-22T14:31:02;7.63;;;3.38;;
20729;SDS011;10526;50.850;12.928;2023-07-22T14:35:25;9.73;;;3.65;;
20729;SDS011;10526;50.850;12.928;2023-07-22T14:39:47;8.25;;;3.13;;
20729;SDS011;10526;50.850;12.928;2023-07-22T14:44:09;10.50;;;3.42;;
20729;SDS011;10526;50.850;12.928;2023-07-22T14:48:31;8.45;;;3.20;;
20729;SDS011;10526;50.850;12.928;2023-07-22T14:52:53;8.10;;;3.78;;
20729;SDS011;10526;50.850;12.928;2023-07-22T14:57:19;7.75;;;3.17;;
20729;SDS011;10526;50.850;12.928;2023-07-22T15:01:41;9.07;;;3.55;;
20729;SDS011;10526;50.850;12.928;2023-07-22T15:06:04;6.75;;;3.30;;
20729;SDS011;10526;50.850;12.928;2023-07-22T15:10:26;8.50;;;3.22;;
20729;SDS011;10526;50.850;12.928;2023-07-22T15:14:48;7.90;;;3.53;;
20729;SDS011;10526;50.850;12.928;2023-07-22T15:19:11;9.30;;;3.72;;
20729;SDS011;10526;50.850;12.928;2023-07-22T15:23:33;7.50;;;3.30;;
20729;SDS011;10526;50.850;12.928;2023-07-22T15:27:55;8.23;;;3.28;;
20729;SDS011;10526;50.850;12.928;2023-07-22T15:32:16;8.70;;;3.63;;
20729;SDS011;10526;50.850;12.928;2023-07-22T15:36:39;8.43;;;3.70;;
20729;SDS011;10526;50.850;12.928;2023-07-22T15:41:01;7.47;;;3.60;;
20729;SDS011;10526;50.850;12.928;2023-07-22T15:45:23;8.65;;;4.03;;
20729;SDS011;10526;50.850;12.928;2023-07-22T15:49:45;8.90;;;3.60;;
20729;SDS011;10526;50.850;12.928;2023-07-22T15:54:07;7.93;;;3.55;;
20729;SDS011;10526;50.850;12.928;2023-07-22T15:58:29;8.43;;;3.88;;
20729;SDS011;10526;50.850;12.928;2023-07-22T16:02:51;7.20;;;3.78;;
20729;SDS011;10526;50.850;12.928;2023-07-22T16:07:13;8.75;;;4.13;;
20729;SDS011;10526;50.850;12.928;2023-07-22T16:11:35;8.27;;;3.90;;
20729;SDS011;10526;50.850;12.928;2023-07-22T16:15:57;9.57;;;3.97;;
20729;SDS011;10526;50.850;12.928;2023-07-22T16:20:19;8.85;;;3.95;;
20729;SDS011;10526;50.850;12.928;2023-07-22T16:24:41;9.00;;;4.10;;
20729;SDS011;10526;50.850;12.928;2023-07-22T16:29:05;8.90;;;3.95;;
20729;SDS011;10526;50.850;12.928;2023-07-22T16:33:27;9.30;;;3.85;;
20729;SDS011;10526;50.850;12.928;2023-07-22T16:37:50;11.23;;;3.95;;
20729;SDS011;10526;50.850;12.928;2023-07-22T16:42:12;8.90;;;4.10;;
20729;SDS011;10526;50.850;12.928;2023-07-22T16:46:34;10.57;;;3.95;;
20729;SDS011;10526;50.850;12.928;2023-07-22T16:50:56;12.50;;;4.28;;
20729;SDS011;10526;50.850;12.928;2023-07-22T16:55:18;9.55;;;3.45;;
20729;SDS011;10526;50.850;12.928;2023-07-22T16:59:40;8.98;;;4.00;;
20729;SDS011;10526;50.850;12.928;2023-07-22T17:04:02;11.07;;;4.13;;
20729;SDS011;10526;50.850;12.928;2023-07-22T17:08:24;15.38;;;7.43;;
20729;SDS011;10526;50.850;12.928;2023-07-22T17:12:46;12.35;;;5.05;;
20729;SDS011;10526;50.850;12.928;2023-07-22T17:17:08;10.93;;;4.55;;
20729;SDS011;10526;50.850;12.928;2023-07-22T17:21:31;12.30;;;4.72;;
20729;SDS011;10526;50.850;12.928;2023-07-22T17:25:52;10.02;;;3.88;;
20729;SDS011;10526;50.850;12.928;2023-07-22T17:30:14;12.60;;;4.40;;
20729;SDS011;10526;50.850;12.928;2023-07-22T17:34:37;8.93;;;3.78;;
20729;SDS011;10526;50.850;12.928;2023-07-22T17:38:59;9.90;;;4.32;;
20729;SDS011;10526;50.850;12.928;2023-07-22T17:43:21;11.85;;;3.83;;
20729;SDS011;10526;50.850;12.928;2023-07-22T17:47:43;10.45;;;4.35;;
20729;SDS011;10526;50.850;12.928;2023-07-22T17:52:05;11.55;;;4.55;;
20729;SDS011;10526;50.850;12.928;2023-07-22T17:56:27;12.43;;;4.15;;
20729;SDS011;10526;50.850;12.928;2023-07-22T18:00:49;10.25;;;4.25;;
20729;SDS011;10526;50.850;12.928;2023-07-22T18:05:11;9.20;;;4.30;;
20729;SDS011;10526;50.850;12.928;2023-07-22T18:09:33;10.35;;;4.28;;
20729;SDS011;10526;50.850;12.928;2023-07-22T18:13:55;9.15;;;4.00;;
20729;SDS011;10526;50.850;12.928;2023-07-22T18:18:18;10.45;;;3.50;;
20729;SDS011;10526;50.850;12.928;2023-07-22T18:22:40;10.48;;;3.97;;
20729;SDS011;10526;50.850;12.928;2023-07-22T18:27:02;10.73;;;4.80;;
20729;SDS011;10526;50.850;12.928;2023-07-22T18:31:24;13.15;;;4.45;;
20729;SDS011;10526;50.850;12.928;2023-07-22T18:35:50;9.90;;;4.25;;
20729;SDS011;10526;50.850;12.928;2023-07-22T18:40:12;13.40;;;6.78;;
20729;SDS011;10526;50.850;12.928;2023-07-22T18:44:35;10.73;;;4.03;;
20729;SDS011;10526;50.850;12.928;2023-07-22T18:48:57;10.77;;;4.75;;
20729;SDS011;10526;50.850;12.928;2023-07-22T18:53:19;12.20;;;4.53;;
20729;SDS011;10526;50.850;12.928;2023-07-22T18:57:41;12.23;;;4.05;;
20729;SDS011;10526;50.850;12.928;2023-07-22T19:02:04;10.20;;;4.40;;
20729;SDS011;10526;50.850;12.928;2023-07-22T19:06:26;13.00;;;4.78;;
20729;SDS011;10526;50.850;12.928;2023-07-22T19:10:48;10.65;;;4.78;;
20729;SDS011;10526;50.850;12.928;2023-07-22T19:15:10;11.73;;;4.63;;
20729;SDS011;10526;50.850;12.928;2023-07-22T19:19:32;9.30;;;4.22;;
20729;SDS011;10526;50.850;12.928;2023-07-22T19:23:54;9.45;;;4.20;;
20729;SDS011;10526;50.850;12.928;2023-07-22T19:28:16;11.25;;;4.30;;
20729;SDS011;10526;50.850;12.928;2023-07-22T19:32:38;11.07;;;4.40;;
20729;SDS011;10526;50.850;12.928;2023-07-22T19:37:00;13.68;;;5.85;;
20729;SDS011;10526;50.850;12.928;2023-07-22T19:41:22;13.43;;;6.05;;
20729;SDS011;10526;50.850;12.928;2023-07-22T19:45:45;13.98;;;6.03;;
20729;SDS011;10526;50.850;12.928;2023-07-22T19:50:07;12.98;;;5.72;;
20729;SDS011;10526;50.850;12.928;2023-07-22T19:54:29;12.60;;;6.30;;
20729;SDS011;10526;50.850;12.928;2023-07-22T19:58:51;14.40;;;6.32;;
20729;SDS011;10526;50.850;12.928;2023-07-22T20:03:13;15.13;;;7.03;;
20729;SDS011;10526;50.850;12.928;2023-07-22T20:07:35;14.82;;;7.70;;
20729;SDS011;10526;50.850;12.928;2023-07-22T20:11:57;14.80;;;7.97;;
20729;SDS011;10526;50.850;12.928;2023-07-22T20:16:19;15.70;;;7.65;;
20729;SDS011;10526;50.850;12.928;2023-07-22T20:20:41;17.67;;;7.25;;
20729;SDS011;10526;50.850;12.928;2023-07-22T20:25:04;15.98;;;6.90;;
20729;SDS011;10526;50.850;12.928;2023-07-22T20:29:26;16.00;;;7.78;;
20729;SDS011;10526;50.850;12.928;2023-07-22T20:33:48;15.48;;;7.32;;
20729;SDS011;10526;50.850;12.928;2023-07-22T20:38:10;15.27;;;7.25;;
20729;SDS011;10526;50.850;12.928;2023-07-22T20:42:33;18.25;;;7.35;;
20729;SDS011;10526;50.850;12.928;2023-07-22T20:46:55;16.17;;;7.65;;
20729;SDS011;10526;50.850;12.928;2023-07-22T20:51:17;16.63;;;8.23;;
20729;SDS011;10526;50.850;12.928;2023-07-22T20:55:41;14.90;;;7.78;;
20729;SDS011;10526;50.850;12.928;2023-07-22T21:00:03;18.08;;;7.32;;
20729;SDS011;10526;50.850;12.928;2023-07-22T21:04:28;16.15;;;7.53;;
20729;SDS011;10526;50.850;12.928;2023-07-22T21:08:50;16.83;;;7.85;;
20729;SDS011;10526;50.850;12.928;2023-07-22T21:13:12;14.85;;;7.70;;
20729;SDS011;10526;50.850;12.928;2023-07-22T21:17:34;15.27;;;6.75;;
20729;SDS011;10526;50.850;12.928;2023-07-22T21:21:56;14.30;;;7.35;;
20729;SDS011;10526;50.850;12.928;2023-07-22T21:26:20;14.68;;;7.07;;
20729;SDS011;10526;50.850;12.928;2023-07-22T21:30:42;13.52;;;6.68;;
20729;SDS011;10526;50.850;12.928;2023-07-22T21:35:04;15.00;;;6.70;;
20729;SDS011;10526;50.850;12.928;2023-07-22T21:39:27;14.52;;;7.43;;
20729;SDS011;10526;50.850;12.928;2023-07-22T21:43:52;14.20;;;7.50;;
20729;SDS011;10526;50.850;12.928;2023-07-22T21:48:14;15.30;;;7.45;;
20729;SDS011;10526;50.850;12.928;2023-07-22T21:52:36;16.58;;;8.00;;
20729;SDS011;10526;50.850;12.928;2023-07-22T21:56:58;16.50;;;7.40;;
20729;SDS011;10526;50.850;12.928;2023-07-22T22:01:21;17.08;;;8.15;;
20729;SDS011;10526;50.850;12.928;2023-07-22T22:05:46;15.95;;;8.13;;
20729;SDS011;10526;50.850;12.928;2023-07-22T22:10:09;15.57;;;7.85;;
20729;SDS011;10526;50.850;12.928;2023-07-22T22:14:31;16.60;;;8.90;;
20729;SDS011;10526;50.850;12.928;2023-07-22T22:18:53;16.98;;;8.82;;
20729;SDS011;10526;50.850;12.928;2023-07-22T22:23:15;14.90;;;8.40;;
20729;SDS011;10526;50.850;12.928;2023-07-22T22:27:37;18.23;;;8.73;;
20729;SDS011;10526;50.850;12.928;2023-07-22T22:31:59;17.13;;;8.88;;
20729;SDS011;10526;50.850;12.928;2023-07-22T22:36:21;14.93;;;8.07;;
20729;SDS011;10526;50.850;12.928;2023-07-22T22:40:44;14.98;;;7.20;;
20729;SDS011;10526;50.850;12.928;2023-07-22T22:45:06;15.00;;;7.38;;
20729;SDS011;10526;50.850;12.928;2023-07-22T22:49:31;15.63;;;7.60;;
20729;SDS011;10526;50.850;12.928;2023-07-22T22:53:53;16.02;;;8.07;;
20729;SDS011;10526;50.850;12.928;2023-07-22T22:58:19;12.63;;;7.13;;
20729;SDS011;10526;50.850;12.928;2023-07-22T23:02:42;15.13;;;7.78;;
20729;SDS011;10526;50.850;12.928;2023-07-22T23:07:08;14.75;;;7.32;;
20729;SDS011;10526;50.850;12.928;2023-07-22T23:11:30;13.30;;;7.25;;
20729;SDS011;10526;50.850;12.928;2023-07-22T23:15:53;14.25;;;7.63;;
20729;SDS011;10526;50.850;12.928;2023-07-22T23:20:15;15.77;;;7.78;;
20729;SDS011;10526;50.850;12.928;2023-07-22T23:24:37;14.75;;;7.25;;
20729;SDS011;10526;50.850;12.928;2023-07-22T23:28:59;16.73;;;8.20;;
20729;SDS011;10526;50.850;12.928;2023-07-22T23:33:22;16.00;;;8.00;;
20729;SDS011;10526;50.850;12.928;2023-07-22T23:37:47;16.58;;;7.60;;
20729;SDS011;10526;50.850;12.928;2023-07-22T23:42:08;16.33;;;8.63;;
20729;SDS011;10526;50.850;12.928;2023-07-22T23:46:31;17.83;;;8.60;;
20729;SDS011;10526;50.850;12.928;2023-07-22T23:50:53;16.48;;;8.35;;
20729;SDS011;10526;50.850;12.928;2023-07-22T23:55:15;18.05;;;8.35;;
20729;SDS011;10526;50.850;12.928;2023-07-22T23:59:38;17.08;;;8.05;;
